createdAt,value
2023-04-17T19:14:02.584Z,100600.38
2023-04-17T19:16:04.103Z,100600.97
2023-04-17T19:18:06.725Z,100602.00
2023-04-17T19:20:09.165Z,100597.91
2023-04-17T19:22:10.641Z,100596.31
2023-04-17T19:24:12.185Z,100595.44
2023-04-17T19:26:15.781Z,100600.16
2023-04-17T19:28:17.340Z,100604.88
2023-04-17T19:30:18.772Z,100607.13
2023-04-17T19:32:20.215Z,100603.22
2023-04-17T19:34:22.010Z,100610.38
2023-04-17T19:36:23.511Z,100600.22
2023-04-17T19:38:25.958Z,100608.38
2023-04-17T19:40:27.646Z,100597.59
2023-04-17T19:42:29.136Z,100597.59
2023-04-17T19:44:30.618Z,100603.88
2023-04-17T19:46:32.564Z,100602.88
2023-04-17T19:48:34.260Z,100604.69
2023-04-17T19:50:35.743Z,100614.28
2023-04-17T19:52:40.544Z,100602.25
2023-04-17T19:54:45.446Z,100601.44
2023-04-17T19:56:46.991Z,100605.50
2023-04-17T19:58:48.534Z,100606.94
2023-04-17T20:00:49.985Z,100602.03
2023-04-17T20:02:51.571Z,100605.28
2023-04-17T20:04:53.287Z,100604.66
2023-04-17T20:06:54.699Z,100604.66
2023-04-17T20:08:58.273Z,100604.66
2023-04-17T20:11:00.149Z,100605.66
2023-04-17T20:13:01.795Z,100604.22
2023-04-17T20:15:03.750Z,100603.81
2023-04-17T20:17:05.215Z,100600.75
2023-04-17T20:19:06.759Z,100603.81
2023-04-17T20:21:08.165Z,100598.31
2023-04-17T20:23:09.613Z,100602.56
2023-04-17T20:25:11.013Z,100597.47
2023-04-17T20:27:12.608Z,100590.94
2023-04-17T20:29:14.362Z,100599.09
2023-04-17T20:31:16.345Z,100601.16
2023-04-17T20:33:17.908Z,100598.88
2023-04-17T20:35:23.518Z,100599.03
2023-04-17T20:37:25.062Z,100596.03
2023-04-17T20:39:26.470Z,100605.50
2023-04-17T20:41:27.888Z,100596.56
2023-04-17T20:43:31.529Z,100601.03
2023-04-17T20:45:32.997Z,100594.91
2023-04-17T20:47:34.970Z,100592.84
2023-04-17T20:49:36.805Z,100598.75
2023-04-17T20:51:38.246Z,100596.91
2023-04-17T20:53:39.696Z,100596.47
2023-04-17T20:55:41.213Z,100591.75
2023-04-17T20:57:42.631Z,100591.34
2023-04-17T20:59:44.079Z,100591.72
2023-04-17T21:01:45.575Z,100585.84
2023-04-17T21:03:47.204Z,100593.34
2023-04-17T21:05:48.705Z,100588.44
2023-04-17T21:07:51.537Z,100598.16
2023-04-17T21:09:53.299Z,100590.81
2023-04-17T21:11:55.277Z,100593.84
2023-04-17T21:13:58.792Z,100590.38
2023-04-17T21:16:00.335Z,100599.06
2023-04-17T21:18:01.852Z,100598.28
2023-04-17T21:20:05.002Z,100600.84
2023-04-17T21:22:06.730Z,100598.81
2023-04-17T21:24:08.944Z,100605.25
2023-04-17T21:26:10.444Z,100604.03
2023-04-17T21:28:11.838Z,100600.16
2023-04-17T21:30:13.546Z,100606.00
2023-04-17T21:32:15.102Z,100606.56
2023-04-17T21:34:16.510Z,100610.19
2023-04-17T21:36:19.486Z,100608.75
2023-04-17T21:38:20.846Z,100613.03
2023-04-17T21:40:22.258Z,100609.16
2023-04-17T21:42:25.702Z,100606.47
2023-04-17T21:44:27.153Z,100604.66
2023-04-17T21:46:29.175Z,100606.22
2023-04-17T21:48:30.592Z,100599.88
2023-04-17T21:50:32.045Z,100606.53
2023-04-17T21:52:33.583Z,100609.13
2023-04-17T21:54:34.988Z,100607.47
2023-04-17T21:56:36.586Z,100610.50
2023-04-17T21:58:38.003Z,100604.41
2023-04-17T22:00:39.490Z,100600.69
2023-04-17T22:02:41.359Z,100604.72
2023-04-17T22:04:43.064Z,100605.47
2023-04-17T22:06:44.523Z,100612.69
2023-04-17T22:08:46.341Z,100602.94
2023-04-17T22:10:47.822Z,100610.59
2023-04-17T22:12:49.241Z,100604.91
2023-04-17T22:14:50.611Z,100605.06
2023-04-17T22:16:52.621Z,100604.00
2023-04-17T22:18:54.396Z,100602.53
2023-04-17T22:20:55.985Z,100606.19
2023-04-17T22:22:57.370Z,100604.25
2023-04-17T22:24:58.777Z,100609.72
2023-04-17T22:27:00.268Z,100604.63
2023-04-17T22:29:01.687Z,100606.66
2023-04-17T22:31:03.164Z,100611.19
2023-04-17T22:33:04.783Z,100605.31
2023-04-17T22:35:07.106Z,100607.06
2023-04-17T22:37:08.554Z,100611.88
2023-04-17T22:39:09.993Z,100612.69
2023-04-17T22:41:11.946Z,100612.41
2023-04-17T22:43:13.389Z,100620.47
2023-04-17T22:45:14.870Z,100611.13
2023-04-17T22:47:16.337Z,100613.97
2023-04-17T22:49:19.652Z,100624.22
2023-04-17T22:51:21.065Z,100624.59
2023-04-17T22:53:22.986Z,100628.75
2023-04-17T22:55:24.410Z,100629.94
2023-04-17T22:57:25.818Z,100630.31
2023-04-17T22:59:27.229Z,100634.00
2023-04-17T23:01:28.696Z,100638.66
2023-04-17T23:03:30.124Z,100632.56
2023-04-17T23:05:31.672Z,100625.03
2023-04-17T23:07:33.195Z,100628.56
2023-04-17T23:09:34.640Z,100631.19
2023-04-17T23:11:36.049Z,100631.19
2023-04-17T23:13:37.443Z,100635.34
2023-04-17T23:15:39.063Z,100635.44
2023-04-17T23:17:40.529Z,100637.78
2023-04-17T23:19:42.182Z,100642.53
2023-04-17T23:21:43.630Z,100638.97
2023-04-17T23:23:45.275Z,100636.50
2023-04-17T23:25:49.776Z,100638.06
2023-04-17T23:27:51.194Z,100634.59
2023-04-17T23:29:52.619Z,100642.84
2023-04-17T23:31:54.159Z,100630.38
2023-04-17T23:47:17.394Z,100636.50
2023-04-17T23:49:18.752Z,100644.72
2023-04-17T23:51:20.757Z,100639.34
2023-04-17T23:53:22.113Z,100648.09
2023-04-17T23:55:26.425Z,100643.31
2023-04-17T23:57:27.769Z,100646.16
2023-04-17T23:59:29.179Z,100644.50
